sensor_id;sensor_type;location;lat;lon;timestamp;P1;durP1;ratioP1;P2;durP2;ratioP2
14872;SDS011;7528;48.576;19.122;2023-05-15T00:00:27;2.95;;;1.90;;
14872;SDS011;7528;48.576;19.122;2023-05-15T00:05:31;4.15;;;2.10;;
14872;SDS011;7528;48.576;19.122;2023-05-15T00:10:34;2.75;;;2.40;;
14872;SDS011;7528;48.576;19.122;2023-05-15T00:15:36;2.10;;;1.88;;
14872;SDS011;7528;48.576;19.122;2023-05-15T00:20:40;3.60;;;2.60;;
14872;SDS011;7528;48.576;19.122;2023-05-15T00:25:42;4.32;;;3.25;;
14872;SDS011;7528;48.576;19.122;2023-05-15T00:30:45;6.32;;;4.38;;
14872;SDS011;7528;48.576;19.122;2023-05-15T00:35:49;8.23;;;6.22;;
14872;SDS011;7528;48.576;19.122;2023-05-15T00:40:51;4.38;;;3.45;;
14872;SDS011;7528;48.576;19.122;2023-05-15T00:45:55;10.45;;;7.78;;
14872;SDS011;7528;48.576;19.122;2023-05-15T00:51:01;5.05;;;4.00;;
14872;SDS011;7528;48.576;19.122;2023-05-15T00:56:04;7.45;;;4.80;;
14872;SDS011;7528;48.576;19.122;2023-05-15T01:01:07;4.10;;;3.10;;
14872;SDS011;7528;48.576;19.122;2023-05-15T01:06:11;2.72;;;2.50;;
14872;SDS011;7528;48.576;19.122;2023-05-15T01:11:14;2.92;;;2.63;;
14872;SDS011;7528;48.576;19.122;2023-05-15T01:16:19;4.15;;;3.75;;
14872;SDS011;7528;48.576;19.122;2023-05-15T01:21:37;4.07;;;3.03;;
14872;SDS011;7528;48.576;19.122;2023-05-15T01:27:04;3.50;;;3.20;;
14872;SDS011;7528;48.576;19.122;2023-05-15T01:32:11;22.13;;;13.05;;
14872;SDS011;7528;48.576;19.122;2023-05-15T01:37:18;10.45;;;7.45;;
14872;SDS011;7528;48.576;19.122;2023-05-15T01:42:29;4.40;;;3.55;;
14872;SDS011;7528;48.576;19.122;2023-05-15T01:47:35;3.33;;;3.03;;
14872;SDS011;7528;48.576;19.122;2023-05-15T01:52:41;2.97;;;2.67;;
14872;SDS011;7528;48.576;19.122;2023-05-15T01:57:49;3.00;;;2.70;;
14872;SDS011;7528;48.576;19.122;2023-05-15T02:02:52;4.82;;;2.67;;
14872;SDS011;7528;48.576;19.122;2023-05-15T02:07:55;3.22;;;2.92;;
14872;SDS011;7528;48.576;19.122;2023-05-15T02:12:59;2.65;;;2.45;;
14872;SDS011;7528;48.576;19.122;2023-05-15T02:18:03;2.60;;;2.40;;
14872;SDS011;7528;48.576;19.122;2023-05-15T02:23:06;3.08;;;2.78;;
14872;SDS011;7528;48.576;19.122;2023-05-15T02:28:11;2.30;;;2.10;;
14872;SDS011;7528;48.576;19.122;2023-05-15T02:33:27;2.53;;;2.30;;
14872;SDS011;7528;48.576;19.122;2023-05-15T02:38:36;2.20;;;2.00;;
14872;SDS011;7528;48.576;19.122;2023-05-15T02:43:44;2.50;;;2.17;;
14872;SDS011;7528;48.576;19.122;2023-05-15T02:48:49;2.55;;;2.30;;
14872;SDS011;7528;48.576;19.122;2023-05-15T02:53:53;2.03;;;1.92;;
14872;SDS011;7528;48.576;19.122;2023-05-15T02:58:57;2.10;;;1.70;;
14872;SDS011;7528;48.576;19.122;2023-05-15T03:04:00;2.05;;;1.67;;
14872;SDS011;7528;48.576;19.122;2023-05-15T03:09:03;3.40;;;3.10;;
14872;SDS011;7528;48.576;19.122;2023-05-15T03:14:07;3.05;;;2.75;;
14872;SDS011;7528;48.576;19.122;2023-05-15T03:19:09;3.13;;;2.88;;
14872;SDS011;7528;48.576;19.122;2023-05-15T03:24:12;3.10;;;2.70;;
14872;SDS011;7528;48.576;19.122;2023-05-15T03:29:15;3.65;;;2.50;;
14872;SDS011;7528;48.576;19.122;2023-05-15T03:34:18;2.80;;;2.10;;
14872;SDS011;7528;48.576;19.122;2023-05-15T03:39:21;2.53;;;1.90;;
14872;SDS011;7528;48.576;19.122;2023-05-15T03:44:25;2.90;;;2.00;;
14872;SDS011;7528;48.576;19.122;2023-05-15T03:49:27;2.60;;;2.00;;
14872;SDS011;7528;48.576;19.122;2023-05-15T03:54:30;2.03;;;1.90;;
14872;SDS011;7528;48.576;19.122;2023-05-15T03:59:34;2.13;;;1.92;;
14872;SDS011;7528;48.576;19.122;2023-05-15T04:04:36;3.85;;;2.22;;
14872;SDS011;7528;48.576;19.122;2023-05-15T04:09:39;3.33;;;2.70;;
14872;SDS011;7528;48.576;19.122;2023-05-15T04:14:42;2.63;;;2.28;;
14872;SDS011;7528;48.576;19.122;2023-05-15T04:19:45;3.85;;;3.55;;
14872;SDS011;7528;48.576;19.122;2023-05-15T04:24:47;4.47;;;4.07;;
14872;SDS011;7528;48.576;19.122;2023-05-15T04:29:51;6.78;;;6.18;;
14872;SDS011;7528;48.576;19.122;2023-05-15T04:34:53;4.32;;;3.90;;
14872;SDS011;7528;48.576;19.122;2023-05-15T04:39:56;6.38;;;5.85;;
14872;SDS011;7528;48.576;19.122;2023-05-15T04:45:00;5.00;;;4.50;;
14872;SDS011;7528;48.576;19.122;2023-05-15T04:50:02;4.20;;;3.80;;
14872;SDS011;7528;48.576;19.122;2023-05-15T04:55:06;7.85;;;7.15;;
14872;SDS011;7528;48.576;19.122;2023-05-15T05:00:12;3.58;;;3.10;;
14872;SDS011;7528;48.576;19.122;2023-05-15T05:05:16;4.22;;;3.00;;
14872;SDS011;7528;48.576;19.122;2023-05-15T05:10:19;4.28;;;3.88;;
14872;SDS011;7528;48.576;19.122;2023-05-15T05:15:23;3.22;;;2.92;;
14872;SDS011;7528;48.576;19.122;2023-05-15T05:20:25;2.97;;;2.50;;
14872;SDS011;7528;48.576;19.122;2023-05-15T05:25:28;3.00;;;2.63;;
14872;SDS011;7528;48.576;19.122;2023-05-15T05:30:32;9.02;;;3.58;;
14872;SDS011;7528;48.576;19.122;2023-05-15T05:35:34;2.53;;;2.38;;
14872;SDS011;7528;48.576;19.122;2023-05-15T05:40:37;3.28;;;2.97;;
14872;SDS011;7528;48.576;19.122;2023-05-15T05:45:40;3.60;;;3.30;;
14872;SDS011;7528;48.576;19.122;2023-05-15T05:50:43;3.22;;;2.95;;
14872;SDS011;7528;48.576;19.122;2023-05-15T05:55:45;3.20;;;2.85;;
14872;SDS011;7528;48.576;19.122;2023-05-15T06:00:49;3.50;;;3.20;;
14872;SDS011;7528;48.576;19.122;2023-05-15T06:05:52;3.00;;;2.80;;
14872;SDS011;7528;48.576;19.122;2023-05-15T06:10:54;3.53;;;3.22;;
14872;SDS011;7528;48.576;19.122;2023-05-15T06:15:58;3.83;;;3.42;;
14872;SDS011;7528;48.576;19.122;2023-05-15T06:21:01;3.92;;;3.63;;
14872;SDS011;7528;48.576;19.122;2023-05-15T06:26:04;3.90;;;3.60;;
14872;SDS011;7528;48.576;19.122;2023-05-15T06:31:08;4.07;;;3.75;;
14872;SDS011;7528;48.576;19.122;2023-05-15T06:36:11;6.68;;;5.95;;
14872;SDS011;7528;48.576;19.122;2023-05-15T06:41:13;8.55;;;7.75;;
14872;SDS011;7528;48.576;19.122;2023-05-15T06:46:17;5.03;;;4.55;;
14872;SDS011;7528;48.576;19.122;2023-05-15T06:51:19;5.38;;;4.97;;
14872;SDS011;7528;48.576;19.122;2023-05-15T06:56:22;5.40;;;4.93;;
14872;SDS011;7528;48.576;19.122;2023-05-15T07:01:29;4.60;;;4.20;;
14872;SDS011;7528;48.576;19.122;2023-05-15T07:06:32;5.95;;;5.45;;
14872;SDS011;7528;48.576;19.122;2023-05-15T07:11:37;6.38;;;5.78;;
14872;SDS011;7528;48.576;19.122;2023-05-15T07:16:42;5.18;;;4.78;;
14872;SDS011;7528;48.576;19.122;2023-05-15T07:21:46;5.50;;;5.00;;
14872;SDS011;7528;48.576;19.122;2023-05-15T07:26:49;4.60;;;4.20;;
14872;SDS011;7528;48.576;19.122;2023-05-15T07:31:53;5.28;;;4.78;;
14872;SDS011;7528;48.576;19.122;2023-05-15T07:36:55;7.28;;;4.82;;
14872;SDS011;7528;48.576;19.122;2023-05-15T07:41:58;5.20;;;4.80;;
14872;SDS011;7528;48.576;19.122;2023-05-15T07:47:02;5.00;;;4.60;;
14872;SDS011;7528;48.576;19.122;2023-05-15T07:52:08;2.63;;;2.42;;
14872;SDS011;7528;48.576;19.122;2023-05-15T07:57:11;2.47;;;2.28;;
14872;SDS011;7528;48.576;19.122;2023-05-15T08:02:16;2.20;;;2.10;;
14872;SDS011;7528;48.576;19.122;2023-05-15T08:07:19;2.80;;;2.60;;
14872;SDS011;7528;48.576;19.122;2023-05-15T08:12:21;2.70;;;2.50;;
14872;SDS011;7528;48.576;19.122;2023-05-15T08:17:26;2.90;;;2.53;;
14872;SDS011;7528;48.576;19.122;2023-05-15T08:22:28;3.67;;;2.33;;
14872;SDS011;7528;48.576;19.122;2023-05-15T08:27:31;2.53;;;2.28;;
14872;SDS011;7528;48.576;19.122;2023-05-15T08:32:35;2.55;;;2.35;;
14872;SDS011;7528;48.576;19.122;2023-05-15T08:37:38;2.60;;;2.38;;
14872;SDS011;7528;48.576;19.122;2023-05-15T08:42:42;4.18;;;3.80;;
14872;SDS011;7528;48.576;19.122;2023-05-15T08:47:48;2.90;;;2.70;;
14872;SDS011;7528;48.576;19.122;2023-05-15T08:52:50;2.35;;;2.15;;
14872;SDS011;7528;48.576;19.122;2023-05-15T08:57:57;3.15;;;2.17;;
14872;SDS011;7528;48.576;19.122;2023-05-15T09:03:02;3.20;;;1.80;;
14872;SDS011;7528;48.576;19.122;2023-05-15T09:08:05;1.85;;;1.75;;
14872;SDS011;7528;48.576;19.122;2023-05-15T09:13:08;4.25;;;3.95;;
14872;SDS011;7528;48.576;19.122;2023-05-15T09:18:14;1.83;;;1.73;;
14872;SDS011;7528;48.576;19.122;2023-05-15T09:23:23;1.88;;;1.77;;
14872;SDS011;7528;48.576;19.122;2023-05-15T09:28:27;2.00;;;1.90;;
14872;SDS011;7528;48.576;19.122;2023-05-15T09:33:33;2.33;;;2.13;;
14872;SDS011;7528;48.576;19.122;2023-05-15T09:38:39;2.30;;;2.10;;
14872;SDS011;7528;48.576;19.122;2023-05-15T09:43:42;2.75;;;2.30;;
14872;SDS011;7528;48.576;19.122;2023-05-15T09:48:46;2.00;;;1.90;;
14872;SDS011;7528;48.576;19.122;2023-05-15T09:53:49;3.08;;;2.88;;
14872;SDS011;7528;48.576;19.122;2023-05-15T09:58:53;2.60;;;2.10;;
14872;SDS011;7528;48.576;19.122;2023-05-15T10:03:59;2.13;;;1.70;;
14872;SDS011;7528;48.576;19.122;2023-05-15T10:09:03;2.45;;;2.03;;
14872;SDS011;7528;48.576;19.122;2023-05-15T10:14:07;2.50;;;2.30;;
14872;SDS011;7528;48.576;19.122;2023-05-15T10:19:12;2.30;;;2.10;;
14872;SDS011;7528;48.576;19.122;2023-05-15T10:24:14;1.77;;;1.67;;
14872;SDS011;7528;48.576;19.122;2023-05-15T10:29:19;1.80;;;1.70;;
14872;SDS011;7528;48.576;19.122;2023-05-15T10:34:26;1.70;;;1.52;;
14872;SDS011;7528;48.576;19.122;2023-05-15T10:39:30;1.70;;;1.60;;
14872;SDS011;7528;48.576;19.122;2023-05-15T10:44:33;2.00;;;1.80;;
14872;SDS011;7528;48.576;19.122;2023-05-15T10:49:37;1.52;;;1.42;;
14872;SDS011;7528;48.576;19.122;2023-05-15T10:54:39;1.42;;;1.33;;
14872;SDS011;7528;48.576;19.122;2023-05-15T10:59:42;1.65;;;1.55;;
14872;SDS011;7528;48.576;19.122;2023-05-15T11:04:46;1.70;;;1.60;;
14872;SDS011;7528;48.576;19.122;2023-05-15T11:09:49;2.53;;;1.80;;
14872;SDS011;7528;48.576;19.122;2023-05-15T11:20:21;1.80;;;1.40;;
14872;SDS011;7528;48.576;19.122;2023-05-15T11:25:34;1.52;;;1.42;;
14872;SDS011;7528;48.576;19.122;2023-05-15T11:30:38;1.55;;;1.45;;
14872;SDS011;7528;48.576;19.122;2023-05-15T11:35:45;1.60;;;1.50;;
14872;SDS011;7528;48.576;19.122;2023-05-15T11:40:48;1.48;;;1.38;;
14872;SDS011;7528;48.576;19.122;2023-05-15T11:45:55;1.45;;;1.35;;
14872;SDS011;7528;48.576;19.122;2023-05-15T11:51:00;1.60;;;1.40;;
14872;SDS011;7528;48.576;19.122;2023-05-15T11:56:03;2.67;;;1.48;;
14872;SDS011;7528;48.576;19.122;2023-05-15T12:01:08;1.55;;;1.45;;
14872;SDS011;7528;48.576;19.122;2023-05-15T12:06:12;1.50;;;1.40;;
14872;SDS011;7528;48.576;19.122;2023-05-15T12:11:15;1.75;;;1.30;;
14872;SDS011;7528;48.576;19.122;2023-05-15T12:16:21;1.50;;;1.40;;
14872;SDS011;7528;48.576;19.122;2023-05-15T12:21:26;1.50;;;1.40;;
14872;SDS011;7528;48.576;19.122;2023-05-15T12:26:29;1.40;;;1.30;;
14872;SDS011;7528;48.576;19.122;2023-05-15T12:31:32;1.35;;;1.13;;
14872;SDS011;7528;48.576;19.122;2023-05-15T12:36:37;2.13;;;1.40;;
14872;SDS011;7528;48.576;19.122;2023-05-15T12:41:42;1.40;;;1.30;;
14872;SDS011;7528;48.576;19.122;2023-05-15T12:46:45;1.67;;;1.40;;
14872;SDS011;7528;48.576;19.122;2023-05-15T12:51:49;1.50;;;1.40;;
14872;SDS011;7528;48.576;19.122;2023-05-15T12:56:52;1.27;;;1.20;;
14872;SDS011;7528;48.576;19.122;2023-05-15T13:01:54;1.10;;;1.10;;
14872;SDS011;7528;48.576;19.122;2023-05-15T13:06:58;1.63;;;1.00;;
14872;SDS011;7528;48.576;19.122;2023-05-15T13:12:01;1.67;;;1.20;;
14872;SDS011;7528;48.576;19.122;2023-05-15T13:17:04;2.88;;;1.00;;
14872;SDS011;7528;48.576;19.122;2023-05-15T13:22:09;2.05;;;1.20;;
14872;SDS011;7528;48.576;19.122;2023-05-15T13:27:11;2.30;;;1.00;;
14872;SDS011;7528;48.576;19.122;2023-05-15T13:32:14;1.02;;;1.00;;
14872;SDS011;7528;48.576;19.122;2023-05-15T13:37:18;1.45;;;1.00;;
14872;SDS011;7528;48.576;19.122;2023-05-15T13:42:20;1.67;;;1.00;;
14872;SDS011;7528;48.576;19.122;2023-05-15T13:47:22;1.30;;;1.20;;
14872;SDS011;7528;48.576;19.122;2023-05-15T13:52:27;1.98;;;1.35;;
14872;SDS011;7528;48.576;19.122;2023-05-15T13:57:31;1.83;;;1.73;;
14872;SDS011;7528;48.576;19.122;2023-05-15T14:02:33;1.70;;;1.52;;
14872;SDS011;7528;48.576;19.122;2023-05-15T14:07:37;2.15;;;1.40;;
14872;SDS011;7528;48.576;19.122;2023-05-15T14:12:40;1.40;;;1.30;;
14872;SDS011;7528;48.576;19.122;2023-05-15T14:17:43;3.03;;;1.67;;
14872;SDS011;7528;48.576;19.122;2023-05-15T14:22:49;1.60;;;1.50;;
14872;SDS011;7528;48.576;19.122;2023-05-15T14:27:51;1.50;;;1.40;;
14872;SDS011;7528;48.576;19.122;2023-05-15T14:32:55;6.38;;;1.85;;
14872;SDS011;7528;48.576;19.122;2023-05-15T14:38:02;1.65;;;1.55;;
14872;SDS011;7528;48.576;19.122;2023-05-15T14:43:09;1.70;;;1.60;;
14872;SDS011;7528;48.576;19.122;2023-05-15T14:48:12;1.70;;;1.60;;
14872;SDS011;7528;48.576;19.122;2023-05-15T14:53:15;1.95;;;1.70;;
14872;SDS011;7528;48.576;19.122;2023-05-15T14:58:22;2.00;;;1.90;;
14872;SDS011;7528;48.576;19.122;2023-05-15T15:03:24;1.92;;;1.73;;
14872;SDS011;7528;48.576;19.122;2023-05-15T15:08:29;1.92;;;1.80;;
14872;SDS011;7528;48.576;19.122;2023-05-15T15:13:31;1.90;;;1.80;;
14872;SDS011;7528;48.576;19.122;2023-05-15T15:18:34;1.88;;;1.77;;
14872;SDS011;7528;48.576;19.122;2023-05-15T15:23:38;1.60;;;1.50;;
14872;SDS011;7528;48.576;19.122;2023-05-15T15:28:41;1.80;;;1.70;;
14872;SDS011;7528;48.576;19.122;2023-05-15T15:33:44;1.95;;;1.70;;
14872;SDS011;7528;48.576;19.122;2023-05-15T15:38:50;1.58;;;1.30;;
14872;SDS011;7528;48.576;19.122;2023-05-15T15:43:52;2.75;;;1.70;;
14872;SDS011;7528;48.576;19.122;2023-05-15T15:48:55;2.38;;;1.63;;
14872;SDS011;7528;48.576;19.122;2023-05-15T15:53:58;1.50;;;1.40;;
14872;SDS011;7528;48.576;19.122;2023-05-15T15:59:01;1.80;;;1.70;;
14872;SDS011;7528;48.576;19.122;2023-05-15T16:04:03;1.85;;;1.55;;
14872;SDS011;7528;48.576;19.122;2023-05-15T16:09:07;2.53;;;2.33;;
14872;SDS011;7528;48.576;19.122;2023-05-15T16:14:10;1.98;;;1.60;;
14872;SDS011;7528;48.576;19.122;2023-05-15T16:19:12;2.60;;;2.13;;
14872;SDS011;7528;48.576;19.122;2023-05-15T16:24:16;2.88;;;1.55;;
14872;SDS011;7528;48.576;19.122;2023-05-15T16:29:21;2.60;;;1.55;;
14872;SDS011;7528;48.576;19.122;2023-05-15T16:34:30;1.45;;;1.33;;
14872;SDS011;7528;48.576;19.122;2023-05-15T16:39:35;1.58;;;1.48;;
14872;SDS011;7528;48.576;19.122;2023-05-15T16:44:38;1.73;;;1.63;;
14872;SDS011;7528;48.576;19.122;2023-05-15T16:49:41;2.47;;;1.67;;
14872;SDS011;7528;48.576;19.122;2023-05-15T16:54:46;3.78;;;3.10;;
14872;SDS011;7528;48.576;19.122;2023-05-15T16:59:50;3.00;;;2.80;;
14872;SDS011;7528;48.576;19.122;2023-05-15T17:04:52;3.70;;;3.38;;
14872;SDS011;7528;48.576;19.122;2023-05-15T17:09:56;2.25;;;1.63;;
14872;SDS011;7528;48.576;19.122;2023-05-15T17:14:59;2.42;;;1.75;;
14872;SDS011;7528;48.576;19.122;2023-05-15T17:20:03;1.55;;;1.40;;
14872;SDS011;7528;48.576;19.122;2023-05-15T17:25:09;1.98;;;1.70;;
14872;SDS011;7528;48.576;19.122;2023-05-15T17:30:12;2.13;;;1.55;;
14872;SDS011;7528;48.576;19.122;2023-05-15T17:35:14;3.63;;;1.70;;
14872;SDS011;7528;48.576;19.122;2023-05-15T17:40:19;2.28;;;1.77;;
14872;SDS011;7528;48.576;19.122;2023-05-15T17:45:22;2.38;;;1.90;;
14872;SDS011;7528;48.576;19.122;2023-05-15T17:50:26;3.65;;;2.10;;
14872;SDS011;7528;48.576;19.122;2023-05-15T17:55:29;5.30;;;1.90;;
14872;SDS011;7528;48.576;19.122;2023-05-15T18:00:32;3.58;;;2.05;;
14872;SDS011;7528;48.576;19.122;2023-05-15T18:05:34;2.35;;;1.70;;
14872;SDS011;7528;48.576;19.122;2023-05-15T18:10:38;2.50;;;1.77;;
14872;SDS011;7528;48.576;19.122;2023-05-15T18:15:41;2.75;;;2.42;;
14872;SDS011;7528;48.576;19.122;2023-05-15T18:20:44;3.92;;;2.67;;
14872;SDS011;7528;48.576;19.122;2023-05-15T18:25:48;2.75;;;2.53;;
14872;SDS011;7528;48.576;19.122;2023-05-15T18:30:51;4.78;;;2.58;;
14872;SDS011;7528;48.576;19.122;2023-05-15T18:35:53;3.17;;;2.33;;
14872;SDS011;7528;48.576;19.122;2023-05-15T18:40:57;2.35;;;1.85;;
14872;SDS011;7528;48.576;19.122;2023-05-15T18:46:00;2.95;;;2.50;;
14872;SDS011;7528;48.576;19.122;2023-05-15T18:51:02;5.80;;;3.92;;
14872;SDS011;7528;48.576;19.122;2023-05-15T18:56:06;5.65;;;3.50;;
14872;SDS011;7528;48.576;19.122;2023-05-15T19:01:09;5.80;;;3.60;;
14872;SDS011;7528;48.576;19.122;2023-05-15T19:06:11;4.15;;;3.60;;
14872;SDS011;7528;48.576;19.122;2023-05-15T19:11:20;5.47;;;3.22;;
14872;SDS011;7528;48.576;19.122;2023-05-15T19:16:22;5.65;;;3.00;;
14872;SDS011;7528;48.576;19.122;2023-05-15T19:21:27;3.75;;;2.80;;
14872;SDS011;7528;48.576;19.122;2023-05-15T19:26:32;3.17;;;2.50;;
14872;SDS011;7528;48.576;19.122;2023-05-15T19:31:34;3.55;;;2.50;;
14872;SDS011;7528;48.576;19.122;2023-05-15T19:36:37;4.07;;;2.78;;
14872;SDS011;7528;48.576;19.122;2023-05-15T19:41:41;3.85;;;2.40;;
14872;SDS011;7528;48.576;19.122;2023-05-15T19:46:45;2.70;;;2.50;;
14872;SDS011;7528;48.576;19.122;2023-05-15T19:51:48;3.25;;;2.85;;
14872;SDS011;7528;48.576;19.122;2023-05-15T19:56:52;7.55;;;3.70;;
14872;SDS011;7528;48.576;19.122;2023-05-15T20:01:55;3.72;;;3.42;;
14872;SDS011;7528;48.576;19.122;2023-05-15T20:06:58;4.13;;;3.72;;
14872;SDS011;7528;48.576;19.122;2023-05-15T20:12:02;5.22;;;3.92;;
14872;SDS011;7528;48.576;19.122;2023-05-15T20:17:05;4.22;;;3.53;;
14872;SDS011;7528;48.576;19.122;2023-05-15T20:22:08;3.72;;;3.22;;
14872;SDS011;7528;48.576;19.122;2023-05-15T20:27:12;4.97;;;3.30;;
14872;SDS011;7528;48.576;19.122;2023-05-15T20:32:15;5.68;;;2.72;;
14872;SDS011;7528;48.576;19.122;2023-05-15T20:37:17;4.97;;;3.35;;
14872;SDS011;7528;48.576;19.122;2023-05-15T20:42:21;4.65;;;3.88;;
14872;SDS011;7528;48.576;19.122;2023-05-15T20:47:24;3.88;;;3.42;;
14872;SDS011;7528;48.576;19.122;2023-05-15T20:52:26;4.80;;;3.08;;
14872;SDS011;7528;48.576;19.122;2023-05-15T20:57:30;5.72;;;3.03;;
14872;SDS011;7528;48.576;19.122;2023-05-15T21:02:33;3.17;;;2.50;;
14872;SDS011;7528;48.576;19.122;2023-05-15T21:07:35;3.28;;;3.08;;
14872;SDS011;7528;48.576;19.122;2023-05-15T21:12:39;2.97;;;2.67;;
14872;SDS011;7528;48.576;19.122;2023-05-15T21:17:42;4.20;;;2.53;;
14872;SDS011;7528;48.576;19.122;2023-05-15T21:22:44;4.88;;;4.25;;
14872;SDS011;7528;48.576;19.122;2023-05-15T21:27:48;4.97;;;3.47;;
14872;SDS011;7528;48.576;19.122;2023-05-15T21:32:50;6.45;;;5.68;;
14872;SDS011;7528;48.576;19.122;2023-05-15T21:37:53;5.40;;;4.90;;
14872;SDS011;7528;48.576;19.122;2023-05-15T21:42:57;6.32;;;4.50;;
14872;SDS011;7528;48.576;19.122;2023-05-15T21:47:59;5.97;;;3.88;;
14872;SDS011;7528;48.576;19.122;2023-05-15T21:53:02;7.05;;;3.50;;
14872;SDS011;7528;48.576;19.122;2023-05-15T21:58:05;3.55;;;3.08;;
14872;SDS011;7528;48.576;19.122;2023-05-15T22:03:08;5.88;;;3.20;;
14872;SDS011;7528;48.576;19.122;2023-05-15T22:08:10;4.87;;;3.30;;
14872;SDS011;7528;48.576;19.122;2023-05-15T22:13:14;2.78;;;2.58;;
14872;SDS011;7528;48.576;19.122;2023-05-15T22:18:17;4.05;;;2.33;;
14872;SDS011;7528;48.576;19.122;2023-05-15T22:23:20;4.90;;;3.10;;
14872;SDS011;7528;48.576;19.122;2023-05-15T22:28:24;3.70;;;3.28;;
14872;SDS011;7528;48.576;19.122;2023-05-15T22:33:26;5.73;;;4.30;;
14872;SDS011;7528;48.576;19.122;2023-05-15T22:38:29;6.57;;;3.87;;
14872;SDS011;7528;48.576;19.122;2023-05-15T22:43:33;4.53;;;3.97;;
14872;SDS011;7528;48.576;19.122;2023-05-15T22:48:36;5.03;;;3.20;;
14872;SDS011;7528;48.576;19.122;2023-05-15T22:53:38;5.57;;;3.07;;
14872;SDS011;7528;48.576;19.122;2023-05-15T22:58:42;5.63;;;5.13;;
14872;SDS011;7528;48.576;19.122;2023-05-15T23:03:45;7.23;;;4.90;;
14872;SDS011;7528;48.576;19.122;2023-05-15T23:08:47;4.67;;;4.27;;
14872;SDS011;7528;48.576;19.122;2023-05-15T23:13:52;7.27;;;6.43;;
14872;SDS011;7528;48.576;19.122;2023-05-15T23:18:54;4.07;;;3.50;;
14872;SDS011;7528;48.576;19.122;2023-05-15T23:23:57;5.70;;;5.20;;
14872;SDS011;7528;48.576;19.122;2023-05-15T23:29:01;6.53;;;5.83;;
14872;SDS011;7528;48.576;19.122;2023-05-15T23:34:04;7.07;;;5.55;;
14872;SDS011;7528;48.576;19.122;2023-05-15T23:39:06;5.50;;;5.00;;
14872;SDS011;7528;48.576;19.122;2023-05-15T23:44:10;4.97;;;4.47;;
14872;SDS011;7528;48.576;19.122;2023-05-15T23:49:13;6.07;;;5.05;;
14872;SDS011;7528;48.576;19.122;2023-05-15T23:54:15;8.00;;;7.20;;
14872;SDS011;7528;48.576;19.122;2023-05-15T23:59:19;5.80;;;5.17;;
